createdAt,value
2019-02-15T00:01:04.024Z,2.62
2019-02-15T00:03:33.371Z,2.62
2019-02-15T00:06:02.399Z,2.63
2019-02-15T00:08:31.738Z,2.62
2019-02-15T00:11:00.795Z,2.61
2019-02-15T00:13:30.045Z,2.60
2019-02-15T00:15:59.098Z,2.57
2019-02-15T00:18:35.039Z,2.55
2019-02-15T00:21:24.922Z,2.52
2019-02-15T00:23:53.936Z,2.51
2019-02-15T00:26:23.008Z,2.48
2019-02-15T00:28:52.022Z,2.46
2019-02-15T00:31:22.386Z,2.41
2019-02-15T00:33:51.399Z,2.38
2019-02-15T00:36:20.775Z,2.34
2019-02-15T00:38:49.823Z,2.30
2019-02-15T00:41:18.834Z,2.28
2019-02-15T00:43:47.872Z,2.25
2019-02-15T00:46:41.813Z,2.22
2019-02-15T00:49:15.934Z,2.22
2019-02-15T00:52:01.324Z,2.18
2019-02-15T00:54:47.038Z,2.16
2019-02-15T00:57:23.924Z,2.15
2019-02-15T01:00:02.506Z,2.12
2019-02-15T01:02:49.221Z,2.10
2019-02-15T01:05:36.193Z,2.10
2019-02-15T01:08:30.526Z,2.09
2019-02-15T01:11:07.086Z,2.08
2019-02-15T01:13:36.146Z,2.08
2019-02-15T01:16:05.188Z,2.08
2019-02-15T01:18:34.212Z,2.07
2019-02-15T01:21:03.228Z,2.03
2019-02-15T01:23:32.279Z,2.01
2019-02-15T01:26:32.589Z,2.00
2019-02-15T01:29:32.596Z,1.97
2019-02-15T01:32:28.950Z,1.93
2019-02-15T01:35:15.762Z,1.88
2019-02-15T01:38:03.813Z,1.88
2019-02-15T01:40:50.814Z,1.85
2019-02-15T01:43:44.665Z,1.82
2019-02-15T01:46:20.437Z,1.80
2019-02-15T01:48:49.498Z,1.78
2019-02-15T01:51:18.857Z,1.76
2019-02-15T01:53:47.886Z,1.72
2019-02-15T01:56:16.938Z,1.66
2019-02-15T01:58:45.958Z,1.62
2019-02-15T02:01:20.102Z,1.59
2019-02-15T02:03:49.169Z,1.57
2019-02-15T02:06:18.216Z,1.55
2019-02-15T02:08:47.277Z,1.51
2019-02-15T02:11:16.354Z,1.48
2019-02-15T02:13:49.720Z,1.45
2019-02-15T02:16:16.099Z,1.42
2019-02-15T02:18:45.154Z,1.37
2019-02-15T02:21:14.179Z,1.33
2019-02-15T02:23:43.228Z,1.28
2019-02-15T02:26:12.446Z,1.25
2019-02-15T02:28:41.422Z,1.21
2019-02-15T02:31:10.481Z,1.22
2019-02-15T02:33:39.494Z,1.24
2019-02-15T02:36:08.573Z,1.22
2019-02-15T02:38:37.591Z,1.24
2019-02-15T02:41:06.924Z,1.23
2019-02-15T02:43:35.974Z,1.21
2019-02-15T02:46:05.001Z,1.22
2019-02-15T02:48:34.132Z,1.21
2019-02-15T02:51:03.164Z,1.21
2019-02-15T02:53:32.592Z,1.24
2019-02-15T02:56:01.907Z,1.27
2019-02-15T02:58:30.959Z,1.31
2019-02-15T03:00:59.915Z,1.33
2019-02-15T03:03:28.994Z,1.33
2019-02-15T03:05:58.063Z,1.34
2019-02-15T03:08:27.140Z,1.37
2019-02-15T03:10:56.178Z,1.37
2019-02-15T03:13:25.193Z,1.36
2019-02-15T03:15:54.170Z,1.36
2019-02-15T03:18:23.225Z,1.36
2019-02-15T03:20:52.282Z,1.35
2019-02-15T03:23:21.234Z,1.35
2019-02-15T03:25:50.307Z,1.36
2019-02-15T03:28:19.706Z,1.38
2019-02-15T03:30:48.751Z,1.40
2019-02-15T03:33:17.782Z,1.40
2019-02-15T03:35:59.103Z,1.42
2019-02-15T03:38:42.178Z,1.44
2019-02-15T03:41:26.484Z,1.45
2019-02-15T03:43:56.241Z,1.47
2019-02-15T03:46:25.568Z,1.49
2019-02-15T03:48:54.598Z,1.50
2019-02-15T03:51:23.651Z,1.50
2019-02-15T03:53:52.703Z,1.49
2019-02-15T03:56:21.760Z,1.47
2019-02-15T03:58:50.826Z,1.47
2019-02-15T04:01:20.289Z,1.43
2019-02-15T04:03:49.329Z,1.41
2019-02-15T04:06:18.401Z,1.39
2019-02-15T04:08:47.707Z,1.37
2019-02-15T04:11:16.731Z,1.35
2019-02-15T04:13:45.653Z,1.32
2019-02-15T04:16:14.675Z,1.34
2019-02-15T04:18:43.635Z,1.35
2019-02-15T04:21:12.692Z,1.34
2019-02-15T04:23:41.726Z,1.34
2019-02-15T04:26:10.854Z,1.33
2019-02-15T04:28:39.923Z,1.30
2019-02-15T04:31:08.908Z,1.26
2019-02-15T04:33:37.990Z,1.24
2019-02-15T04:36:06.918Z,1.23
2019-02-15T04:38:35.973Z,1.23
2019-02-15T04:41:05.033Z,1.21
2019-02-15T04:43:34.085Z,1.19
2019-02-15T04:46:03.109Z,1.13
2019-02-15T04:48:32.088Z,1.10
2019-02-15T04:51:01.102Z,1.08
2019-02-15T04:53:30.171Z,1.06
2019-02-15T04:55:59.225Z,1.05
2019-02-15T04:58:28.544Z,1.03
2019-02-15T05:00:57.607Z,0.99
2019-02-15T05:03:27.036Z,0.98
2019-02-15T05:05:56.053Z,0.98
2019-02-15T05:08:25.058Z,0.96
2019-02-15T05:10:54.085Z,0.95
2019-02-15T05:13:23.120Z,0.95
2019-02-15T05:15:52.181Z,0.96
2019-02-15T05:18:21.132Z,0.94
2019-02-15T05:20:50.241Z,0.92
2019-02-15T05:23:19.191Z,0.90
2019-02-15T05:25:48.201Z,0.90
2019-02-15T05:28:17.174Z,0.91
2019-02-15T05:30:46.556Z,0.90
2019-02-15T05:33:15.536Z,0.88
2019-02-15T05:35:44.531Z,0.86
2019-02-15T05:38:13.560Z,0.82
2019-02-15T05:40:42.636Z,0.80
2019-02-15T05:43:12.024Z,0.78
2019-02-15T05:45:40.980Z,0.76
2019-02-15T05:48:10.046Z,0.73
2019-02-15T05:50:39.401Z,0.71
2019-02-15T05:53:08.730Z,0.71
2019-02-15T05:55:37.799Z,0.70
2019-02-15T05:58:06.820Z,0.70
2019-02-15T06:00:37.302Z,0.66
2019-02-15T06:03:06.513Z,0.60
2019-02-15T06:05:35.456Z,0.57
2019-02-15T06:08:04.773Z,0.56
2019-02-15T06:10:33.842Z,0.56
2019-02-15T06:13:03.141Z,0.56
2019-02-15T06:15:32.139Z,0.56
2019-02-15T06:18:01.206Z,0.55
2019-02-15T06:20:30.240Z,0.55
2019-02-15T06:22:59.287Z,0.55
2019-02-15T06:25:28.384Z,0.58
2019-02-15T06:27:57.378Z,0.62
2019-02-15T06:30:26.397Z,0.64
2019-02-15T06:32:55.488Z,0.66
2019-02-15T06:35:24.891Z,0.68
2019-02-15T06:37:53.945Z,0.69
2019-02-15T06:40:23.022Z,0.69
2019-02-15T06:42:52.365Z,0.71
2019-02-15T06:45:24.982Z,0.72
2019-02-15T06:47:52.159Z,0.76
2019-02-15T06:50:21.224Z,0.78
2019-02-15T06:52:50.243Z,0.81
2019-02-15T06:55:19.570Z,0.85
2019-02-15T06:57:48.562Z,0.90
2019-02-15T07:00:48.643Z,0.94
2019-02-15T07:03:43.066Z,0.99
2019-02-15T07:06:12.085Z,1.03
2019-02-15T07:08:41.266Z,1.10
2019-02-15T07:11:10.270Z,1.17
2019-02-15T07:13:39.437Z,1.23
2019-02-15T07:16:08.486Z,1.31
2019-02-15T07:18:37.523Z,1.39
2019-02-15T07:21:06.577Z,1.44
2019-02-15T07:23:35.600Z,1.53
2019-02-15T07:26:04.652Z,1.67
2019-02-15T07:28:33.689Z,1.79
2019-02-15T07:31:02.697Z,1.92
2019-02-15T07:33:31.771Z,2.10
2019-02-15T07:36:00.781Z,2.25
2019-02-15T07:38:29.821Z,2.52
2019-02-15T07:40:59.156Z,2.78
2019-02-15T07:43:28.166Z,2.92
2019-02-15T07:45:57.512Z,3.12
2019-02-15T07:48:26.422Z,3.19
2019-02-15T07:50:55.809Z,3.21
2019-02-15T07:53:24.906Z,3.19
2019-02-15T07:55:53.951Z,3.11
2019-02-15T07:58:22.960Z,3.19
2019-02-15T08:00:52.031Z,3.26
2019-02-15T08:03:21.076Z,3.35
2019-02-15T08:05:50.137Z,3.39
2019-02-15T08:08:19.125Z,3.37
2019-02-15T08:10:48.177Z,3.36
2019-02-15T08:13:17.242Z,3.49
2019-02-15T08:15:52.054Z,3.68
2019-02-15T08:18:17.024Z,3.80
2019-02-15T08:20:46.074Z,3.89
2019-02-15T08:23:15.150Z,4.01
2019-02-15T08:25:44.176Z,4.13
2019-02-15T08:28:13.196Z,4.20
2019-02-15T08:30:42.165Z,4.33
2019-02-15T08:33:11.277Z,4.48
2019-02-15T08:35:40.294Z,4.59
2019-02-15T08:38:09.238Z,4.74
2019-02-15T08:40:38.570Z,4.84
2019-02-15T08:43:07.651Z,4.97
2019-02-15T08:45:36.697Z,5.03
2019-02-15T08:48:05.645Z,5.12
2019-02-15T08:50:34.697Z,5.23
2019-02-15T08:53:03.823Z,5.33
2019-02-15T08:55:32.795Z,5.46
2019-02-15T08:58:01.811Z,5.59
2019-02-15T09:00:30.761Z,5.72
2019-02-15T09:02:59.816Z,5.83
2019-02-15T09:05:28.826Z,5.94
2019-02-15T09:07:57.761Z,6.01
2019-02-15T09:10:26.801Z,6.11
2019-02-15T09:12:55.779Z,6.19
2019-02-15T09:15:24.896Z,6.35
2019-02-15T09:17:53.829Z,6.45
2019-02-15T09:20:23.266Z,6.60
2019-02-15T09:22:52.325Z,6.69
2019-02-15T09:25:21.339Z,6.78
2019-02-15T09:28:15.510Z,6.85
2019-02-15T09:30:47.786Z,7.00
2019-02-15T09:33:17.149Z,7.08
2019-02-15T09:35:46.174Z,7.17
2019-02-15T09:38:15.193Z,7.30
2019-02-15T09:40:44.254Z,7.41
2019-02-15T09:43:13.271Z,7.56
2019-02-15T09:45:42.316Z,7.65
2019-02-15T09:48:11.343Z,7.78
2019-02-15T09:50:40.409Z,7.91
2019-02-15T09:53:09.418Z,8.05
2019-02-15T09:55:38.496Z,8.18
2019-02-15T09:58:07.604Z,8.24
2019-02-15T10:00:37.669Z,8.37
2019-02-15T10:03:06.735Z,8.39
2019-02-15T10:05:35.673Z,8.51
2019-02-15T10:08:04.685Z,8.65
2019-02-15T10:10:33.737Z,8.68
2019-02-15T10:13:02.716Z,8.87
2019-02-15T10:15:31.781Z,8.95
2019-02-15T10:18:00.824Z,9.04
2019-02-15T10:20:30.123Z,9.14
2019-02-15T10:22:59.116Z,9.20
2019-02-15T10:25:28.115Z,9.27
2019-02-15T10:27:57.126Z,9.33
2019-02-15T10:30:26.176Z,9.50
2019-02-15T10:32:55.188Z,9.71
2019-02-15T10:35:24.289Z,9.80
2019-02-15T10:37:53.685Z,9.89
2019-02-15T10:40:22.980Z,10.01
2019-02-15T10:42:52.040Z,10.09
2019-02-15T10:45:21.056Z,10.19
2019-02-15T10:47:50.118Z,10.29
2019-02-15T10:50:19.134Z,10.39
2019-02-15T10:52:48.198Z,10.44
2019-02-15T10:55:17.220Z,10.49
2019-02-15T10:57:46.241Z,10.58
2019-02-15T11:00:19.646Z,10.65
2019-02-15T11:02:49.472Z,10.76
2019-02-15T11:05:18.634Z,10.86
2019-02-15T11:07:47.662Z,10.91
2019-02-15T11:10:16.734Z,10.97
2019-02-15T11:12:45.755Z,11.04
2019-02-15T11:15:14.911Z,11.10
2019-02-15T11:17:43.943Z,11.15
2019-02-15T11:20:13.633Z,11.22
2019-02-15T11:22:42.707Z,11.37
2019-02-15T11:25:11.878Z,11.44
2019-02-15T11:27:40.887Z,11.52
2019-02-15T11:30:12.166Z,11.51
2019-02-15T11:32:41.195Z,11.55
2019-02-15T11:35:11.439Z,11.59
2019-02-15T11:37:40.902Z,11.57
2019-02-15T11:40:11.575Z,11.66
2019-02-15T11:42:40.595Z,11.77
2019-02-15T11:45:10.742Z,11.82
2019-02-15T11:47:39.756Z,11.89
2019-02-15T11:50:10.310Z,11.98
2019-02-15T11:52:39.555Z,12.11
2019-02-15T11:55:09.009Z,12.17
2019-02-15T11:57:38.066Z,12.29
2019-02-15T12:00:14.220Z,12.39
2019-02-15T12:02:40.009Z,12.48
2019-02-15T12:05:09.403Z,12.58
2019-02-15T12:07:38.883Z,12.56
2019-02-15T12:10:08.197Z,12.65
2019-02-15T12:12:37.254Z,12.69
2019-02-15T12:15:06.798Z,12.84
2019-02-15T12:17:35.858Z,12.87
2019-02-15T12:20:05.234Z,12.84
2019-02-15T12:22:34.220Z,12.84
2019-02-15T12:25:03.290Z,12.89
2019-02-15T12:27:32.306Z,12.96
2019-02-15T12:30:01.261Z,12.94
2019-02-15T12:32:30.329Z,13.03
2019-02-15T12:34:59.757Z,13.04
2019-02-15T12:37:28.812Z,13.14
2019-02-15T12:39:57.828Z,13.21
2019-02-15T12:42:26.888Z,13.20
2019-02-15T12:44:55.867Z,13.24
2019-02-15T12:47:24.932Z,13.22
2019-02-15T12:49:55.722Z,13.31
2019-02-15T12:52:24.819Z,13.36
2019-02-15T12:54:53.929Z,13.25
2019-02-15T12:57:22.996Z,13.29
2019-02-15T12:59:52.282Z,13.41
2019-02-15T13:02:21.354Z,13.42
2019-02-15T13:04:50.405Z,13.42
2019-02-15T13:07:19.461Z,13.50
2019-02-15T13:09:48.529Z,13.48
2019-02-15T13:12:17.549Z,13.54
2019-02-15T13:14:46.606Z,13.60
2019-02-15T13:17:24.215Z,13.63
2019-02-15T13:19:46.438Z,13.62
2019-02-15T13:22:15.458Z,13.61
2019-02-15T13:24:44.541Z,13.64
2019-02-15T13:27:13.573Z,13.70
2019-02-15T13:29:42.842Z,13.71
2019-02-15T13:32:11.973Z,13.59
2019-02-15T13:34:41.041Z,13.65
2019-02-15T13:37:09.966Z,13.65
2019-02-15T13:39:39.025Z,13.61
2019-02-15T13:42:08.043Z,13.62
2019-02-15T13:44:37.127Z,13.65
2019-02-15T13:47:06.234Z,13.72
2019-02-15T13:49:35.294Z,13.75
2019-02-15T13:52:04.403Z,13.75
2019-02-15T13:54:33.393Z,13.63
2019-02-15T13:57:02.459Z,13.58
2019-02-15T13:59:31.719Z,13.59
2019-02-15T14:02:00.735Z,13.59
2019-02-15T14:04:29.800Z,13.56
2019-02-15T14:06:58.819Z,13.54
2019-02-15T14:09:27.841Z,13.58
2019-02-15T14:11:56.903Z,13.56
2019-02-15T14:14:25.938Z,13.56
2019-02-15T14:16:54.969Z,13.54
2019-02-15T14:19:24.045Z,13.50
2019-02-15T14:21:53.062Z,13.41
2019-02-15T14:24:22.345Z,13.38
2019-02-15T14:26:51.672Z,13.43
2019-02-15T14:29:20.745Z,13.44
2019-02-15T14:31:49.973Z,13.46
2019-02-15T14:34:19.022Z,13.43
2019-02-15T14:36:48.065Z,13.39
2019-02-15T14:39:17.213Z,13.36
2019-02-15T14:41:46.234Z,13.38
2019-02-15T14:44:15.569Z,13.35
2019-02-15T14:46:44.643Z,13.30
2019-02-15T14:49:13.669Z,13.24
2019-02-15T14:51:42.671Z,13.19
2019-02-15T14:54:11.637Z,13.18
2019-02-15T14:56:40.658Z,13.15
2019-02-15T14:59:09.725Z,13.10
2019-02-15T15:01:38.655Z,13.08
2019-02-15T15:04:07.677Z,13.02
2019-02-15T15:06:36.710Z,12.94
2019-02-15T15:09:07.225Z,12.87
2019-02-15T15:11:36.311Z,12.78
2019-02-15T15:14:05.339Z,12.73
2019-02-15T15:16:34.342Z,12.66
2019-02-15T15:19:03.402Z,12.59
2019-02-15T15:21:32.509Z,12.52
2019-02-15T15:24:01.526Z,12.46
2019-02-15T15:26:30.529Z,12.36
2019-02-15T15:28:59.589Z,12.30
2019-02-15T15:31:28.606Z,12.24
2019-02-15T15:33:57.632Z,12.16
2019-02-15T15:36:26.700Z,12.08
2019-02-15T15:38:55.731Z,11.99
2019-02-15T15:41:24.813Z,11.89
2019-02-15T15:43:53.843Z,11.78
2019-02-15T15:46:22.851Z,11.69
2019-02-15T15:48:51.915Z,11.61
2019-02-15T15:51:20.926Z,11.50
2019-02-15T15:53:49.915Z,11.39
2019-02-15T15:56:19.019Z,11.29
2019-02-15T15:58:48.045Z,11.20
2019-02-15T16:01:17.090Z,11.08
2019-02-15T16:03:46.157Z,10.98
2019-02-15T16:06:24.057Z,10.88
2019-02-15T16:08:46.476Z,10.77
2019-02-15T16:11:15.479Z,10.65
2019-02-15T16:13:44.883Z,10.54
2019-02-15T16:16:13.938Z,10.42
2019-02-15T16:18:42.951Z,10.29
2019-02-15T16:21:11.925Z,10.14
2019-02-15T16:23:40.828Z,10.00
2019-02-15T16:26:09.885Z,9.86
2019-02-15T16:28:39.375Z,9.76
2019-02-15T16:31:08.714Z,9.62
2019-02-15T16:33:37.698Z,9.51
2019-02-15T16:36:06.757Z,9.40
2019-02-15T16:38:35.764Z,9.26
2019-02-15T16:41:04.805Z,9.14
2019-02-15T16:43:34.205Z,9.04
2019-02-15T16:46:03.308Z,8.93
2019-02-15T16:48:41.686Z,8.82
2019-02-15T16:51:03.100Z,8.72
2019-02-15T16:53:32.144Z,8.62
2019-02-15T16:56:01.162Z,8.51
2019-02-15T16:58:30.204Z,8.44
2019-02-15T17:00:59.288Z,8.37
2019-02-15T17:03:28.579Z,8.29
2019-02-15T17:05:57.672Z,8.23
2019-02-15T17:08:28.627Z,8.15
2019-02-15T17:10:57.643Z,8.11
2019-02-15T17:13:26.662Z,8.06
2019-02-15T17:15:56.046Z,8.01
2019-02-15T17:18:25.472Z,7.97
2019-02-15T17:20:54.565Z,7.94
2019-02-15T17:23:23.569Z,7.91
2019-02-15T17:25:52.898Z,7.89
2019-02-15T17:28:21.962Z,7.85
2019-02-15T17:30:51.005Z,7.86
2019-02-15T17:33:19.951Z,7.84
2019-02-15T17:35:49.002Z,7.86
2019-02-15T17:38:18.017Z,7.87
2019-02-15T17:40:47.551Z,7.84
2019-02-15T17:43:16.491Z,7.82
2019-02-15T17:45:45.549Z,7.78
2019-02-15T17:48:14.862Z,7.76
2019-02-15T17:50:43.926Z,7.73
2019-02-15T17:53:12.987Z,7.70
2019-02-15T17:55:42.382Z,7.67
2019-02-15T17:58:11.389Z,7.62
2019-02-15T18:00:40.452Z,7.60
2019-02-15T18:03:09.468Z,7.58
2019-02-15T18:05:38.484Z,7.53
2019-02-15T18:08:07.526Z,7.46
2019-02-15T18:10:36.538Z,7.42
2019-02-15T18:13:05.588Z,7.38
2019-02-15T18:15:34.755Z,7.33
2019-02-15T18:18:03.807Z,7.23
2019-02-15T18:20:32.876Z,7.12
2019-02-15T18:23:01.926Z,7.01
2019-02-15T18:25:31.050Z,6.91
2019-02-15T18:28:00.072Z,6.80
2019-02-15T18:30:29.133Z,6.72
2019-02-15T18:32:58.227Z,6.66
2019-02-15T18:35:27.164Z,6.59
2019-02-15T18:37:56.180Z,6.53
2019-02-15T18:40:25.237Z,6.46
2019-02-15T18:42:54.318Z,6.38
2019-02-15T18:45:23.333Z,6.31
2019-02-15T18:47:52.345Z,6.25
2019-02-15T18:50:21.400Z,6.17
2019-02-15T18:52:50.410Z,6.10
2019-02-15T18:55:19.452Z,6.02
2019-02-15T18:57:49.299Z,5.96
2019-02-15T19:00:18.428Z,5.89
2019-02-15T19:02:47.519Z,5.84
2019-02-15T19:05:16.582Z,5.80
2019-02-15T19:07:45.589Z,5.79
2019-02-15T19:10:16.358Z,5.78
2019-02-15T19:12:45.414Z,5.75
2019-02-15T19:15:15.389Z,5.74
2019-02-15T19:17:44.415Z,5.69
2019-02-15T19:20:14.021Z,5.61
2019-02-15T19:22:43.465Z,5.51
2019-02-15T19:25:13.250Z,5.43
2019-02-15T19:27:42.271Z,5.37
2019-02-15T19:30:13.894Z,5.31
2019-02-15T19:32:43.066Z,5.23
2019-02-15T19:35:12.171Z,5.16
2019-02-15T19:37:41.231Z,5.08
2019-02-15T19:40:11.471Z,5.01
2019-02-15T19:42:41.766Z,4.92
2019-02-15T19:45:11.925Z,4.87
2019-02-15T19:47:40.961Z,4.78
2019-02-15T19:50:11.974Z,4.71
2019-02-15T19:52:41.529Z,4.65
2019-02-15T19:55:10.892Z,4.62
2019-02-15T19:57:39.946Z,4.58
2019-02-15T20:00:12.546Z,4.56
2019-02-15T20:02:41.556Z,4.52
2019-02-15T20:05:10.567Z,4.48
2019-02-15T20:07:39.661Z,4.41
2019-02-15T20:10:11.418Z,4.35
2019-02-15T20:12:40.453Z,4.32
2019-02-15T20:15:12.457Z,4.30
2019-02-15T20:17:41.899Z,4.26
2019-02-15T20:20:12.125Z,4.24
2019-02-15T20:22:41.160Z,4.24
2019-02-15T20:25:10.720Z,4.25
2019-02-15T20:27:39.737Z,4.24
2019-02-15T20:30:14.556Z,4.23
2019-02-15T20:32:43.588Z,4.24
2019-02-15T20:35:13.620Z,4.24
2019-02-15T20:37:42.830Z,4.26
2019-02-15T20:40:11.927Z,4.26
2019-02-15T20:42:40.973Z,4.25
2019-02-15T20:45:13.038Z,4.25
2019-02-15T20:47:42.106Z,4.24
2019-02-15T20:50:11.175Z,4.22
2019-02-15T20:52:40.220Z,4.19
2019-02-15T20:55:10.607Z,4.12
2019-02-15T20:57:39.675Z,4.09
2019-02-15T21:00:14.574Z,4.03
2019-02-15T21:02:43.617Z,3.98
2019-02-15T21:05:12.656Z,3.94
2019-02-15T21:07:41.702Z,3.91
2019-02-15T21:10:11.206Z,3.89
2019-02-15T21:12:40.260Z,3.87
2019-02-15T21:15:09.898Z,3.89
2019-02-15T21:17:38.948Z,3.89
2019-02-15T21:20:09.482Z,3.91
2019-02-15T21:22:38.491Z,3.93
2019-02-15T21:25:08.878Z,3.93
2019-02-15T21:27:37.948Z,3.91
2019-02-15T21:30:08.863Z,3.92
2019-02-15T21:32:37.873Z,3.90
2019-02-15T21:35:06.952Z,3.91
2019-02-15T21:37:35.965Z,3.90
2019-02-15T21:40:05.561Z,3.90
2019-02-15T21:42:34.553Z,3.92
2019-02-15T21:45:03.561Z,3.93
2019-02-15T21:47:32.586Z,3.96
2019-02-15T21:50:01.838Z,3.97
2019-02-15T21:52:30.798Z,3.96
2019-02-15T21:54:59.849Z,3.95
2019-02-15T21:57:29.181Z,3.93
2019-02-15T21:59:58.224Z,3.90
2019-02-15T22:02:27.273Z,3.86
2019-02-15T22:04:56.391Z,3.85
2019-02-15T22:07:25.805Z,3.82
2019-02-15T22:09:54.881Z,3.78
2019-02-15T22:12:24.508Z,3.72
2019-02-15T22:14:53.521Z,3.70
2019-02-15T22:17:22.475Z,3.65
2019-02-15T22:19:51.447Z,3.61
2019-02-15T22:22:20.500Z,3.58
2019-02-15T22:24:49.557Z,3.54
2019-02-15T22:27:18.542Z,3.49
2019-02-15T22:29:47.558Z,3.46
2019-02-15T22:32:16.521Z,3.42
2019-02-15T22:34:45.543Z,3.40
2019-02-15T22:37:14.476Z,3.42
2019-02-15T22:39:43.578Z,3.42
2019-02-15T22:42:12.626Z,3.40
2019-02-15T22:44:41.756Z,3.41
2019-02-15T22:47:10.829Z,3.43
2019-02-15T22:49:43.373Z,3.41
2019-02-15T22:52:10.599Z,3.37
2019-02-15T22:54:39.658Z,3.34
2019-02-15T22:57:09.043Z,3.30
2019-02-15T22:59:38.047Z,3.30
2019-02-15T23:02:07.107Z,3.32
2019-02-15T23:04:36.137Z,3.32
2019-02-15T23:07:05.181Z,3.29
2019-02-15T23:09:34.311Z,3.24
2019-02-15T23:12:03.369Z,3.22
2019-02-15T23:14:32.467Z,3.21
2019-02-15T23:17:01.813Z,3.23
2019-02-15T23:19:30.875Z,3.21
2019-02-15T23:21:59.899Z,3.16
2019-02-15T23:24:28.912Z,3.09
2019-02-15T23:26:57.963Z,3.07
2019-02-15T23:29:27.015Z,3.05
2019-02-15T23:31:56.026Z,3.02
2019-02-15T23:34:25.076Z,3.00
2019-02-15T23:36:54.143Z,3.00
2019-02-15T23:39:23.416Z,2.97
2019-02-15T23:41:52.459Z,3.01
2019-02-15T23:44:21.461Z,3.06
2019-02-15T23:46:50.507Z,3.11
2019-02-15T23:49:19.523Z,3.18
2019-02-15T23:51:48.587Z,3.27
2019-02-15T23:54:18.244Z,3.31
2019-02-15T23:56:47.284Z,3.34
2019-02-15T23:59:16.223Z,3.37
